createdAt,value
2018-09-28T00:00:10.479Z,97570.59
2018-09-28T00:02:42.688Z,97573.06
2018-09-28T00:05:13.424Z,97576.03
2018-09-28T00:07:48.160Z,97571.44
2018-09-28T00:10:21.680Z,97565.10
2018-09-28T00:12:53.564Z,97568.00
2018-09-28T00:15:28.411Z,97566.30
2018-09-28T00:18:05.044Z,97560.74
2018-09-28T00:20:38.570Z,97559.84
2018-09-28T00:23:12.536Z,97557.65
2018-09-28T00:25:42.184Z,97555.52
2018-09-28T00:28:15.949Z,97556.31
2018-09-28T00:30:45.713Z,97556.66
2018-09-28T00:33:18.306Z,97562.84
2018-09-28T00:35:50.473Z,97553.92
2018-09-28T00:38:22.845Z,97554.72
2018-09-28T00:40:53.458Z,97553.86
2018-09-28T00:43:30.413Z,97549.52
2018-09-28T00:46:06.093Z,97541.87
2018-09-28T00:48:40.762Z,97540.47
2018-09-28T00:51:12.705Z,97536.17
2018-09-28T00:53:44.996Z,97535.30
2018-09-28T00:56:18.814Z,97534.44
2018-09-28T00:58:54.742Z,97529.78
2018-09-28T01:01:30.458Z,97526.28
2018-09-28T01:04:01.947Z,97519.42
2018-09-28T01:06:33.862Z,97516.89
2018-09-28T01:09:07.764Z,97518.09
2018-09-28T01:11:41.312Z,97514.30
2018-09-28T01:14:11.864Z,97512.50
2018-09-28T01:16:46.755Z,97510.80
2018-09-28T01:19:21.427Z,97503.21
2018-09-28T01:21:53.839Z,97503.94
2018-09-28T01:24:23.247Z,97502.14
2018-09-28T01:26:53.098Z,97502.87
2018-09-28T01:29:25.731Z,97500.63
2018-09-28T01:31:58.567Z,97490.81
2018-09-28T01:34:32.465Z,97497.50
2018-09-28T01:37:10.169Z,97491.54
2018-09-28T01:39:42.763Z,97486.45
2018-09-28T01:42:16.363Z,97486.84
2018-09-28T01:44:46.897Z,97482.55
2018-09-28T01:47:19.067Z,97485.87
2018-09-28T01:49:53.822Z,97479.52
2018-09-28T01:52:26.569Z,97481.18
2018-09-28T01:55:03.397Z,97481.11
2018-09-28T01:57:41.205Z,97488.52
2018-09-28T02:00:16.068Z,97494.29
2018-09-28T02:02:47.821Z,97492.77
2018-09-28T02:05:21.274Z,97482.95
2018-09-28T02:07:51.954Z,97480.24
2018-09-28T02:10:21.098Z,97483.63
2018-09-28T02:12:54.553Z,97481.94
2018-09-28T02:15:24.287Z,97480.31
2018-09-28T02:17:55.117Z,97470.20
2018-09-28T02:20:31.789Z,97471.98
2018-09-28T02:23:02.639Z,97465.98
2018-09-28T02:25:34.455Z,97460.03
2018-09-28T02:28:09.254Z,97459.16
2018-09-28T02:30:40.695Z,97454.07
2018-09-28T02:33:13.686Z,97448.84
2018-09-28T02:35:52.732Z,97446.31
2018-09-28T02:38:28.431Z,97450.92
2018-09-28T02:40:59.747Z,97455.00
2018-09-28T02:43:35.761Z,97457.34
2018-09-28T02:46:10.621Z,97454.27
2018-09-28T02:48:48.444Z,97458.45
2018-09-28T02:51:21.103Z,97447.88
2018-09-28T02:53:54.852Z,97443.30
2018-09-28T02:56:26.558Z,97443.70
2018-09-28T02:59:01.524Z,97442.39
2018-09-28T03:01:34.141Z,97439.05
2018-09-28T03:04:05.838Z,97439.05
2018-09-28T03:06:40.773Z,97433.55
2018-09-28T03:09:14.418Z,97427.24
2018-09-28T03:11:48.857Z,97432.30
2018-09-28T03:14:23.945Z,97425.52
2018-09-28T03:16:55.637Z,97428.79
2018-09-28T03:19:29.377Z,97426.98
2018-09-28T03:22:08.392Z,97429.51
2018-09-28T03:24:44.269Z,97430.30
2018-09-28T03:27:15.968Z,97426.00
2018-09-28T03:29:48.636Z,97426.88
2018-09-28T03:32:21.253Z,97429.31
2018-09-28T03:35:02.988Z,97424.23
2018-09-28T03:37:37.984Z,97424.11
2018-09-28T03:40:14.676Z,97421.44
2018-09-28T03:42:48.064Z,97428.14
2018-09-28T03:45:17.700Z,97421.59
2018-09-28T03:47:52.792Z,97424.72
2018-09-28T03:50:24.365Z,97423.45
2018-09-28T03:52:59.149Z,97414.19
2018-09-28T03:55:32.858Z,97412.92
2018-09-28T03:58:06.612Z,97419.59
2018-09-28T04:00:39.638Z,97422.47
2018-09-28T04:03:09.464Z,97421.68
2018-09-28T04:05:43.990Z,97420.86
2018-09-28T04:08:16.720Z,97420.14
2018-09-28T04:10:51.692Z,97421.84
2018-09-28T04:13:25.304Z,97423.45
2018-09-28T04:15:56.023Z,97424.33
2018-09-28T04:18:27.814Z,97422.16
2018-09-28T04:21:02.206Z,97414.19
2018-09-28T04:23:34.864Z,97417.42
2018-09-28T04:26:07.698Z,97421.12
2018-09-28T04:28:44.416Z,97421.84
2018-09-28T04:31:18.079Z,97424.83
2018-09-28T04:33:53.713Z,97418.13
2018-09-28T04:36:26.477Z,97416.05
2018-09-28T04:38:59.246Z,97416.48
2018-09-28T04:41:31.915Z,97422.31
2018-09-28T04:44:08.364Z,97424.87
2018-09-28T04:46:46.250Z,97424.83
2018-09-28T04:49:17.893Z,97429.41
2018-09-28T04:51:48.735Z,97420.58
2018-09-28T04:54:21.454Z,97424.01
2018-09-28T04:56:58.398Z,97424.09
2018-09-28T04:59:33.010Z,97430.05
2018-09-28T05:02:02.690Z,97428.42
2018-09-28T05:04:36.947Z,97429.69
2018-09-28T05:07:12.182Z,97426.80
2018-09-28T05:09:45.065Z,97432.29
2018-09-28T05:12:19.584Z,97436.91
2018-09-28T05:14:56.333Z,97438.52
2018-09-28T05:17:29.905Z,97432.56
2018-09-28T05:20:02.735Z,97435.09
2018-09-28T05:22:38.647Z,97440.84
2018-09-28T05:25:09.681Z,97432.52
2018-09-28T05:27:39.631Z,97443.09
2018-09-28T05:30:11.767Z,97445.81
2018-09-28T05:32:44.738Z,97444.62
2018-09-28T05:35:19.247Z,97442.62
2018-09-28T05:37:56.026Z,97442.34
2018-09-28T05:40:26.152Z,97443.72
2018-09-28T05:42:58.993Z,97442.86
2018-09-28T05:45:37.418Z,97445.77
2018-09-28T05:48:10.093Z,97434.45
2018-09-28T05:50:46.894Z,97436.62
2018-09-28T05:53:21.696Z,97436.98
2018-09-28T05:55:59.626Z,97440.22
2018-09-28T05:58:37.351Z,97446.45
2018-09-28T06:01:18.770Z,97443.56
2018-09-28T06:04:00.564Z,97442.86
2018-09-28T06:06:31.055Z,97442.23
2018-09-28T06:09:01.922Z,97450.11
2018-09-28T06:11:34.608Z,97447.36
2018-09-28T06:14:07.324Z,97447.51
2018-09-28T06:16:38.974Z,97449.08
2018-09-28T06:19:12.823Z,97442.92
2018-09-28T06:21:49.546Z,97443.47
2018-09-28T06:24:19.316Z,97445.91
2018-09-28T06:26:49.212Z,97443.63
2018-09-28T06:29:27.911Z,97446.49
2018-09-28T06:32:02.805Z,97441.62
2018-09-28T06:34:38.598Z,97446.09
2018-09-28T06:37:12.538Z,97451.47
2018-09-28T06:39:49.501Z,97455.53
2018-09-28T06:42:23.126Z,97461.30
2018-09-28T06:45:00.715Z,97469.13
2018-09-28T06:47:34.483Z,97461.77
2018-09-28T06:50:08.193Z,97464.50
2018-09-28T06:52:40.506Z,97462.20
2018-09-28T06:55:15.611Z,97464.95
2018-09-28T06:57:47.447Z,97463.55
2018-09-28T07:00:17.354Z,97473.92
2018-09-28T07:02:50.202Z,97465.73
2018-09-28T07:05:24.946Z,97466.78
2018-09-28T07:07:54.855Z,97468.75
2018-09-28T07:10:29.860Z,97470.59
2018-09-28T07:13:04.386Z,97464.06
2018-09-28T07:15:41.236Z,97470.70
2018-09-28T07:18:14.054Z,97474.75
2018-09-28T07:20:46.772Z,97468.18
2018-09-28T07:23:21.551Z,97465.16
2018-09-28T07:25:53.019Z,97466.23
2018-09-28T07:28:28.059Z,97470.28
2018-09-28T07:31:00.680Z,97460.83
2018-09-28T07:33:37.785Z,97458.53
2018-09-28T07:36:08.623Z,97460.94
2018-09-28T07:38:41.159Z,97459.50
2018-09-28T07:41:13.983Z,97460.97
2018-09-28T07:43:45.969Z,97462.92
2018-09-28T07:46:19.577Z,97474.14
2018-09-28T07:48:52.326Z,97468.87
2018-09-28T07:51:26.910Z,97463.98
2018-09-28T07:54:04.532Z,97465.42
2018-09-28T07:56:37.379Z,97470.77
2018-09-28T07:59:14.030Z,97467.57
2018-09-28T08:01:50.667Z,97470.35
2018-09-28T08:04:24.587Z,97471.44
2018-09-28T08:06:55.239Z,97471.70
2018-09-28T08:09:29.819Z,97468.50
2018-09-28T08:12:02.539Z,97461.86
2018-09-28T08:14:35.333Z,97458.65
2018-09-28T08:17:09.927Z,97452.86
2018-09-28T08:19:46.930Z,97452.96
2018-09-28T08:22:18.593Z,97451.32
2018-09-28T08:24:51.479Z,97453.91
2018-09-28T08:27:27.285Z,97450.56
2018-09-28T08:29:59.879Z,97448.91
2018-09-28T08:32:35.005Z,97449.80
2018-09-28T08:35:06.087Z,97454.09
2018-09-28T08:37:38.420Z,97447.28
2018-09-28T08:40:15.153Z,97447.28
2018-09-28T08:42:46.675Z,97454.95
2018-09-28T08:45:21.638Z,97454.95
2018-09-28T08:47:55.370Z,97450.72
2018-09-28T08:50:34.024Z,97445.62
2018-09-28T08:53:04.953Z,97440.48
2018-09-28T08:55:38.571Z,97443.06
2018-09-28T08:58:14.535Z,97437.95
2018-09-28T09:00:47.275Z,97433.69
2018-09-28T09:03:20.979Z,97433.66
2018-09-28T09:05:54.707Z,97431.11
2018-09-28T09:08:26.575Z,97433.65
2018-09-28T09:10:55.793Z,97422.56
2018-09-28T09:13:25.015Z,97428.51
2018-09-28T09:15:54.245Z,97424.21
2018-09-28T09:18:23.662Z,97421.62
2018-09-28T09:20:55.061Z,97422.44
2018-09-28T09:23:25.389Z,97413.50
2018-09-28T09:25:54.539Z,97421.53
2018-09-28T09:28:23.681Z,97413.80
2018-09-28T09:30:52.970Z,97416.30
2018-09-28T09:33:22.177Z,97423.08
2018-09-28T09:35:51.351Z,97417.03
2018-09-28T09:38:20.503Z,97412.69
2018-09-28T09:40:49.685Z,97411.79
2018-09-28T09:43:18.860Z,97413.84
2018-09-28T09:45:48.023Z,97405.69
2018-09-28T09:48:17.175Z,97406.45
2018-09-28T09:50:46.344Z,97399.61
2018-09-28T09:53:15.494Z,97398.67
2018-09-28T09:55:46.549Z,97398.64
2018-09-28T09:58:15.905Z,97390.42
2018-09-28T10:00:50.428Z,97392.45
2018-09-28T10:03:24.817Z,97385.52
2018-09-28T10:05:55.503Z,97389.27
2018-09-28T10:08:24.670Z,97385.66
2018-09-28T10:10:53.838Z,97380.88
2018-09-28T10:13:23.007Z,97382.02
2018-09-28T10:15:52.190Z,97375.45
2018-09-28T10:18:21.397Z,97375.73
2018-09-28T10:20:50.823Z,97379.53
2018-09-28T10:23:20.135Z,97367.07
2018-09-28T10:25:50.168Z,97375.12
2018-09-28T10:28:19.511Z,97372.56
2018-09-28T10:30:48.934Z,97375.97
2018-09-28T10:34:42.686Z,97374.27
2018-09-28T10:37:11.824Z,97367.45
2018-09-28T10:39:41.090Z,97370.43
2018-09-28T10:42:10.271Z,97372.55
2018-09-28T10:44:40.052Z,97368.73
2018-09-28T10:47:09.778Z,97368.23
2018-09-28T10:49:38.969Z,97369.84
2018-09-28T10:52:08.430Z,97365.38
2018-09-28T10:54:37.949Z,97362.98
2018-09-28T10:57:07.650Z,97359.36
2018-09-28T10:59:36.837Z,97351.41
2018-09-28T11:02:06.229Z,97355.08
2018-09-28T11:04:35.475Z,97343.01
2018-09-28T11:10:05.240Z,97346.73
2018-09-28T11:12:35.209Z,97343.58
2018-09-28T11:15:05.638Z,97341.83
2018-09-28T11:17:36.271Z,97339.98
2018-09-28T11:20:05.566Z,97333.87
2018-09-28T11:22:35.350Z,97324.83
2018-09-28T11:25:05.483Z,97319.89
2018-09-28T11:27:35.571Z,97317.89
2018-09-28T11:30:05.365Z,97316.02
2018-09-28T11:32:35.592Z,97316.53
2018-09-28T11:35:05.523Z,97307.59
2018-09-28T11:37:35.526Z,97311.37
2018-09-28T11:40:05.641Z,97321.58
2018-09-28T11:42:35.544Z,97307.03
2018-09-28T11:45:06.143Z,97299.98
2018-09-28T11:47:35.632Z,97299.33
2018-09-28T11:50:05.782Z,97298.78
2018-09-28T11:52:35.658Z,97297.03
2018-09-28T11:55:05.761Z,97297.66
2018-09-28T11:57:35.887Z,97297.53
2018-09-28T12:00:05.832Z,97298.55
2018-09-28T12:02:35.849Z,97297.03
2018-09-28T12:05:05.931Z,97291.06
2018-09-28T12:07:35.887Z,97280.56
2018-09-28T12:10:05.947Z,97277.79
2018-09-28T12:12:35.907Z,97274.47
2018-09-28T12:15:05.899Z,97264.17
2018-09-28T12:17:36.014Z,97262.77
2018-09-28T12:20:07.290Z,97264.05
2018-09-28T12:22:36.640Z,97261.82
2018-09-28T12:25:06.051Z,97255.94
2018-09-28T12:27:36.107Z,97253.48
2018-09-28T12:36:17.764Z,97237.44
2018-09-28T12:38:46.984Z,97238.72
2018-09-28T12:41:16.199Z,97240.09
2018-09-28T12:43:46.291Z,97233.87
2018-09-28T12:46:15.537Z,97234.86
2018-09-28T12:48:44.833Z,97230.48
2018-09-28T12:51:14.062Z,97226.15
2018-09-28T12:53:43.376Z,97218.75
2018-09-28T12:56:12.722Z,97212.48
2018-09-28T12:58:41.955Z,97211.92
2018-09-28T13:01:11.418Z,97216.91
2018-09-28T13:03:40.586Z,97213.04
2018-09-28T13:06:09.852Z,97215.09
2018-09-28T13:08:39.116Z,97213.29
2018-09-28T13:11:08.358Z,97211.05
2018-09-28T13:13:37.666Z,97213.92
2018-09-28T13:16:07.874Z,97200.84
2018-09-28T13:18:37.276Z,97197.22
2018-09-28T13:21:06.580Z,97193.78
2018-09-28T13:23:36.588Z,97195.69
2018-09-28T13:26:06.491Z,97197.59
2018-09-28T13:28:36.502Z,97195.02
2018-09-28T13:31:06.685Z,97188.34
2018-09-28T13:33:36.536Z,97187.72
2018-09-28T13:36:06.683Z,97177.41
2018-09-28T13:38:36.627Z,97179.89
2018-09-28T13:41:06.747Z,97183.09
2018-09-28T13:43:36.583Z,97175.30
2018-09-28T13:46:06.976Z,97177.79
2018-09-28T13:48:36.669Z,97184.05
2018-09-28T13:51:06.983Z,97179.23
2018-09-28T13:53:36.712Z,97179.65
2018-09-28T13:56:07.028Z,97173.44
2018-09-28T13:58:36.723Z,97184.50
2018-09-28T14:01:07.013Z,97170.30
2018-09-28T14:03:36.755Z,97173.27
2018-09-28T14:06:06.810Z,97164.13
2018-09-28T14:08:36.765Z,97172.48
2018-09-28T14:11:06.789Z,97170.54
2018-09-28T14:13:37.028Z,97171.73
2018-09-28T14:16:06.893Z,97170.48
2018-09-28T14:18:36.851Z,97173.63
2018-09-28T14:21:07.009Z,97166.58
2018-09-28T14:23:36.847Z,97166.13
2018-09-28T14:26:07.056Z,97169.80
2018-09-28T14:28:37.171Z,97164.22
2018-09-28T14:31:11.453Z,97166.30
2018-09-28T14:33:40.740Z,97168.93
2018-09-28T14:36:10.227Z,97167.20
2018-09-28T14:38:39.546Z,97171.39
2018-09-28T14:41:08.889Z,97172.19
2018-09-28T14:43:38.145Z,97165.27
2018-09-28T14:46:07.718Z,97167.17
2018-09-28T14:48:37.155Z,97163.41
2018-09-28T14:51:07.238Z,97156.66
2018-09-28T14:53:37.223Z,97133.09
2018-09-28T14:56:07.459Z,97157.03
2018-09-28T14:58:37.197Z,97161.93
2018-09-28T15:01:07.370Z,97166.66
2018-09-28T15:03:36.479Z,97159.16
2018-09-28T15:06:05.775Z,97166.09
2018-09-28T15:08:35.318Z,97167.91
2018-09-28T15:11:04.567Z,97168.43
2018-09-28T15:13:33.891Z,97161.75
2018-09-28T15:16:03.274Z,97168.31
2018-09-28T15:18:32.828Z,97165.78
2018-09-28T15:21:02.225Z,97167.25
2018-09-28T15:23:31.705Z,97172.20
2018-09-28T15:26:02.448Z,97176.92
2018-09-28T15:28:31.818Z,97174.63
2018-09-28T15:31:01.089Z,97178.81
2018-09-28T15:33:30.367Z,97183.71
2018-09-28T15:35:59.756Z,97188.19
2018-09-28T15:38:29.029Z,97190.98
2018-09-28T15:40:58.363Z,97192.88
2018-09-28T15:43:27.648Z,97192.22
2018-09-28T15:45:57.418Z,97189.85
2018-09-28T15:48:26.685Z,97191.50
2018-09-28T15:50:55.941Z,97191.31
2018-09-28T15:53:25.275Z,97201.77
2018-09-28T15:55:54.571Z,97193.30
2018-09-28T15:58:23.823Z,97197.81
2018-09-28T16:00:53.300Z,97197.06
2018-09-28T16:03:22.537Z,97200.72
2018-09-28T16:05:51.958Z,97202.07
2018-09-28T16:08:21.277Z,97206.03
2018-09-28T16:10:50.615Z,97205.32
2018-09-28T16:13:20.094Z,97201.17
2018-09-28T16:15:49.549Z,97206.38
2018-09-28T16:18:18.863Z,97208.20
2018-09-28T16:20:48.485Z,97209.12
2018-09-28T16:23:17.687Z,97209.25
2018-09-28T16:25:47.128Z,97215.34
2018-09-28T16:28:16.410Z,97215.10
2018-09-28T16:30:45.671Z,97220.83
2018-09-28T16:33:14.954Z,97219.69
2018-09-28T16:35:44.324Z,97229.19
2018-09-28T16:38:15.780Z,97228.88
2018-09-28T16:40:45.072Z,97231.53
2018-09-28T16:43:14.483Z,97232.50
2018-09-28T16:45:43.829Z,97237.83
2018-09-28T16:48:13.090Z,97243.86
2018-09-28T16:50:42.337Z,97243.19
2018-09-28T16:53:11.859Z,97250.19
2018-09-28T16:55:41.069Z,97247.70
2018-09-28T16:58:10.513Z,97252.88
2018-09-28T17:00:39.860Z,97258.96
2018-09-28T17:03:09.974Z,97264.22
2018-09-28T17:05:39.225Z,97263.48
2018-09-28T17:08:08.501Z,97268.72
2018-09-28T17:10:38.602Z,97271.38
2018-09-28T17:13:08.750Z,97276.63
2018-09-28T17:15:38.841Z,97273.23
2018-09-28T17:18:08.721Z,97278.45
2018-09-28T17:20:38.749Z,97274.27
2018-09-28T17:23:08.821Z,97277.73
2018-09-28T17:25:38.805Z,97284.62
2018-09-28T17:28:08.900Z,97291.52
2018-09-28T17:30:38.816Z,97287.33
2018-09-28T17:33:08.858Z,97286.52
2018-09-28T17:35:38.850Z,97287.84
2018-09-28T17:38:08.889Z,97302.80
2018-09-28T17:40:38.897Z,97301.97
2018-09-28T17:43:08.916Z,97305.42
2018-09-28T17:45:38.945Z,97305.91
2018-09-28T17:48:08.932Z,97310.63
2018-09-28T17:50:38.989Z,97306.38
2018-09-28T17:53:09.021Z,97313.21
2018-09-28T17:55:38.989Z,97312.37
2018-09-28T17:58:09.097Z,97319.17
2018-09-28T18:00:39.096Z,97323.04
2018-09-28T18:03:09.277Z,97321.78
2018-09-28T18:05:39.074Z,97328.63
2018-09-28T18:08:09.113Z,97334.20
2018-09-28T18:10:39.247Z,97341.02
2018-09-28T18:13:09.183Z,97347.45
2018-09-28T18:15:39.232Z,97345.77
2018-09-28T18:18:09.948Z,97345.77
2018-09-28T18:20:39.389Z,97349.21
2018-09-28T18:23:11.106Z,97350.96
2018-09-28T18:25:41.134Z,97356.09
2018-09-28T18:28:11.362Z,97362.50
2018-09-28T18:30:41.770Z,97367.17
2018-09-28T18:33:11.954Z,97365.48
2018-09-28T18:35:42.394Z,97373.14
2018-09-28T18:38:12.898Z,97370.20
2018-09-28T18:40:44.390Z,97373.20
2018-09-28T18:43:14.921Z,97370.61
2018-09-28T18:45:44.596Z,97384.27
2018-09-28T18:48:14.159Z,97386.83
2018-09-28T18:50:44.565Z,97391.95
2018-09-28T18:53:15.179Z,97401.73
2018-09-28T18:55:45.359Z,97411.95
2018-09-28T18:58:16.297Z,97416.67
2018-09-28T19:00:47.225Z,97418.36
2018-09-28T19:03:18.358Z,97421.34
2018-09-28T19:05:48.303Z,97429.84
2018-09-28T19:08:18.712Z,97420.03
2018-09-28T19:10:50.044Z,97425.15
2018-09-28T19:13:20.561Z,97431.98
2018-09-28T19:15:51.090Z,97431.98
2018-09-28T19:18:21.349Z,97439.66
2018-09-28T19:20:53.022Z,97443.05
2018-09-28T19:23:22.677Z,97451.54
2018-09-28T19:25:53.859Z,97454.10
2018-09-28T19:28:25.118Z,97463.05
2018-09-28T19:30:55.662Z,97467.30
2018-09-28T19:33:26.148Z,97476.20
2018-09-28T19:35:56.731Z,97485.15
2018-09-28T19:38:26.450Z,97488.12
2018-09-28T19:40:56.219Z,97494.05
2018-09-28T19:43:26.727Z,97502.13
2018-09-28T19:45:56.499Z,97493.20
2018-09-28T19:48:26.122Z,97497.02
2018-09-28T19:50:55.749Z,97503.41
2018-09-28T19:53:25.407Z,97505.52
2018-09-28T19:55:55.096Z,97506.75
2018-09-28T19:58:25.518Z,97512.72
2018-09-28T20:00:55.817Z,97517.79
2018-09-28T20:03:26.073Z,97512.68
2018-09-28T20:05:57.204Z,97517.79
2018-09-28T20:08:28.241Z,97523.75
2018-09-28T20:10:58.511Z,97529.68
2018-09-28T20:16:05.888Z,97544.91
2018-09-28T20:18:36.288Z,97551.28
2018-09-28T20:21:07.577Z,97556.38
2018-09-28T20:23:38.168Z,97561.03
2018-09-28T20:26:08.319Z,97561.86
2018-09-28T20:28:38.257Z,97562.70
2018-09-28T20:31:08.316Z,97569.91
2018-09-28T20:33:38.660Z,97573.73
2018-09-28T20:36:08.645Z,97576.27
2018-09-28T20:38:39.312Z,97583.06
2018-09-28T20:41:09.450Z,97583.92
2018-09-28T20:43:39.304Z,97586.00
2018-09-28T20:46:09.151Z,97578.75
2018-09-28T20:48:39.020Z,97584.67
2018-09-28T20:51:08.692Z,97587.22
2018-09-28T20:53:38.656Z,97589.76
2018-09-28T20:56:08.852Z,97588.89
2018-09-28T20:58:38.654Z,97598.22
2018-09-28T21:01:08.395Z,97605.86
2018-09-28T21:03:38.817Z,97599.90
2018-09-28T21:06:08.907Z,97610.49
2018-09-28T21:08:38.660Z,97620.22
2018-09-28T21:11:08.360Z,97618.48
2018-09-28T21:13:38.011Z,97611.67
2018-09-28T21:16:07.774Z,97618.39
2018-09-28T21:18:37.335Z,97627.75
2018-09-28T21:21:06.963Z,97627.71
2018-09-28T21:23:36.739Z,97639.57
2018-09-28T21:26:06.312Z,97642.95
2018-09-28T21:28:35.960Z,97637.80
2018-09-28T21:31:05.553Z,97635.26
2018-09-28T21:33:35.129Z,97631.84
2018-09-28T21:36:04.759Z,97636.93
2018-09-28T21:38:34.370Z,97637.78
2018-09-28T21:41:04.032Z,97641.20
2018-09-28T21:43:33.685Z,97636.93
2018-09-28T21:46:03.267Z,97642.03
2018-09-28T21:48:32.938Z,97643.73
2018-09-28T21:51:03.918Z,97643.66
2018-09-28T21:53:33.890Z,97646.19
2018-09-28T21:56:03.381Z,97647.89
2018-09-28T21:58:32.932Z,97647.01
2018-09-28T22:01:02.573Z,97646.13
2018-09-28T22:03:32.413Z,97650.33
2018-09-28T22:06:01.858Z,97648.58
2018-09-28T22:08:31.731Z,97645.14
2018-09-28T22:11:01.244Z,97651.95
2018-09-28T22:13:30.892Z,97654.45
2018-09-28T22:16:01.116Z,97644.63
2018-09-28T22:18:31.212Z,97652.73
2018-09-28T22:21:01.323Z,97645.93
2018-09-28T22:23:31.246Z,97651.02
2018-09-28T22:26:01.202Z,97658.64
2018-09-28T22:28:31.314Z,97662.86
2018-09-28T22:31:01.464Z,97668.77
2018-09-28T22:33:31.716Z,97667.89
2018-09-28T22:36:01.884Z,97675.08
2018-09-28T22:38:31.920Z,97669.53
2018-09-28T22:41:02.353Z,97672.90
2018-09-28T22:43:32.789Z,97661.80
2018-09-28T22:46:02.868Z,97666.91
2018-09-28T22:48:32.913Z,97667.75
2018-09-28T22:51:03.012Z,97676.97
2018-09-28T22:53:33.031Z,97681.15
2018-09-28T22:56:03.182Z,97670.88
2018-09-28T22:58:33.426Z,97668.31
2018-09-28T23:01:03.621Z,97672.45
2018-09-28T23:03:33.894Z,97683.03
2018-09-28T23:06:04.615Z,97680.86
2018-09-28T23:08:35.049Z,97684.19
2018-09-28T23:11:05.368Z,97696.00
2018-09-28T23:13:35.440Z,97685.82
2018-09-28T23:16:05.765Z,97690.91
2018-09-28T23:18:35.962Z,97694.69
2018-09-28T23:21:06.221Z,97697.56
2018-09-28T23:23:36.306Z,97694.61
2018-09-28T23:26:06.587Z,97689.89
2018-09-28T23:28:36.875Z,97697.47
2018-09-28T23:31:07.091Z,97698.16
2018-09-28T23:33:37.420Z,97700.69
2018-09-28T23:36:07.156Z,97712.50
2018-09-28T23:38:37.251Z,97707.80
2018-09-28T23:41:07.575Z,97700.23
2018-09-28T23:43:37.535Z,97707.87
2018-09-28T23:46:07.654Z,97714.16
2018-09-28T23:48:38.190Z,97714.50
2018-09-28T23:51:08.316Z,97711.52
2018-09-28T23:53:38.519Z,97708.92
2018-09-28T23:56:09.104Z,97712.30
2018-09-28T23:58:39.299Z,97719.39
